This is the latest recevied weather packets stored in our database for station/object GW1480. If no packets are shown the sender has not sent any weather packets the latest 10 day(s).
| Time | Temp. | Humidity | Pressure | Rain* | Wind** | Luminosity | Snow |
|---|---|---|---|---|---|---|---|
| 1777470713 | 20° C | 94% | 1013.2 hPa | 0.51 mm | - | - | - |
| 1777469237 | 20° C | 91% | 1013.2 hPa | 0.51 mm | - | - | - |
| 1777468902 | 19.44° C | 90% | 1013.5 hPa | 0.51 mm | - | - | - |
| 1777468160 | 18.89° C | 95% | 1013.5 hPa | 0.51 mm | - | - | - |
| 1777463144 | 16.11° C | 98% | 1013.8 hPa | 0.51 mm | - | - | - |
| 1777459181 | 16.11° C | 98% | 1013.2 hPa | 0.51 mm | - | - | - |
| 1777455211 | 16.11° C | 98% | 1013.2 hPa | 0.51 mm | - | - | - |
| 1777454128 | 15.56° C | 98% | 1012.8 hPa | 0.51 mm | - | - | - |
| 1777452313 | 15.56° C | 98% | 1013.5 hPa | 0 mm | - | - | - |
| 1777450150 | 15.56° C | 98% | 1013.8 hPa | 0 mm | - | - | - |
| 1777449460 | 15.56° C | 98% | 1013.8 hPa | 0 mm | - | - | - |
| 1777449099 | 15.56° C | 98% | 1013.8 hPa | 0 mm | - | - | - |
| 1777435752 | 15.56° C | 97% | 1016.2 hPa | 0 mm | - | - | - |
| 1777426061 | 16.67° C | 96% | 1016.5 hPa | 9.4 mm | - | - | - |
| 1777425343 | 16.67° C | 95% | 1016.5 hPa | 9.4 mm | - | - | - |
| 1777423167 | 18.33° C | 95% | 1015.9 hPa | 9.4 mm | - | - | - |
| 1777421013 | 20° C | 93% | 1016.5 hPa | 9.4 mm | - | - | - |
| 1777418847 | 23.33° C | 84% | 1015.9 hPa | 9.4 mm | - | - | - |
| 1777416343 | 25.56° C | 64% | 1015.2 hPa | 9.4 mm | - | - | - |
| 1777414910 | 25.56° C | 63% | 1016.2 hPa | 9.4 mm | - | - | - |
| 1777414553 | 25.56° C | 65% | 1016.5 hPa | 9.4 mm | - | - | - |
| 1777413105 | 25° C | 64% | 1016.5 hPa | 9.4 mm | - | - | - |
| 1777412748 | 25° C | 64% | 1016.9 hPa | 9.4 mm | - | - | - |
| 1777409148 | 24.44° C | 70% | 1017.2 hPa | 9.4 mm | - | - | - |
| 1777408035 | 24.44° C | 69% | 1016.9 hPa | 9.4 mm | - | - | - |
* Rain since midnight (hover to see other rain measurements)
** Current wind speed in m/s (hover to see current wind gust speed)